Time;durP1;ratioP1;P1;durP2;ratioP2;P2;SDS_P1;SDS_P2;PMS_P1;PMS_P2;Temp;Humidity;BMP_temperature;BMP_pressure;BME280_temperature;BME280_humidity;BME280_pressure;Samples;Min_cycle;Max_cycle;Signal;HPM_P1;HPM_P2
2021/06/11 00:01:28;;;;;;;5.87;5.37;;;20.30;99.90;;;;;;5044987;28;20443;-87
2021/06/11 00:03:54;;;;;;;6.23;5.83;;;20.20;99.90;;;;;;5044676;28;20466;-87
2021/06/11 00:06:20;;;;;;;5.47;4.97;;;20.20;99.90;;;;;;5046381;28;20435;-87
2021/06/11 00:08:46;;;;;;;5.30;4.80;;;20.20;99.90;;;;;;5047835;28;20809;-85
2021/06/11 00:11:14;;;;;;;5.87;5.37;;;20.20;99.90;;;;;;5058784;28;20463;-86
2021/06/11 00:13:40;;;;;;;5.87;5.40;;;20.10;99.90;;;;;;5049045;28;20453;-86
2021/06/11 00:16:06;;;;;;;6.83;4.40;;;20.10;99.90;;;;;;5048637;28;20470;-88
2021/06/11 00:18:32;;;;;;;6.27;5.77;;;20.00;99.90;;;;;;5047651;28;20447;-86
2021/06/11 00:20:59;;;;;;;5.63;4.87;;;20.00;99.90;;;;;;5049100;28;20447;-86
2021/06/11 00:23:25;;;;;;;6.00;5.27;;;19.90;99.90;;;;;;5049160;28;20453;-86
2021/06/11 00:25:51;;;;;;;5.47;5.03;;;19.90;99.90;;;;;;5052223;28;20470;-86
2021/06/11 00:28:19;;;;;;;6.10;5.60;;;19.80;99.90;;;;;;5054599;28;20435;-87
2021/06/11 00:30:45;;;;;;;5.57;5.07;;;19.70;99.90;;;;;;5055060;28;20447;-86
2021/06/11 00:33:11;;;;;;;4.80;4.40;;;19.70;99.90;;;;;;5043442;28;20473;-87
2021/06/11 00:35:38;;;;;;;5.73;5.23;;;19.60;99.90;;;;;;5040650;28;20462;-87
2021/06/11 00:38:04;;;;;;;4.90;4.60;;;19.60;99.90;;;;;;5040360;28;20439;-87
2021/06/11 00:40:31;;;;;;;5.20;4.80;;;19.60;99.90;;;;;;5041020;28;20442;-87
2021/06/11 00:42:57;;;;;;;6.00;5.50;;;19.70;99.90;;;;;;5041745;28;20446;-87
2021/06/11 00:45:25;;;;;;;5.63;5.23;;;19.70;99.90;;;;;;5043820;28;20475;-86
2021/06/11 00:47:51;;;;;;;4.73;4.43;;;19.70;99.90;;;;;;5051265;28;20447;-86
2021/06/11 00:50:20;;;;;;;5.17;4.77;;;19.70;99.90;;;;;;5053641;28;20469;-87
2021/06/11 00:52:46;;;;;;;5.10;4.70;;;19.70;99.90;;;;;;5054166;28;20486;-87
2021/06/11 00:55:12;;;;;;;5.70;5.23;;;19.70;99.90;;;;;;5055664;28;20463;-86
2021/06/11 00:57:38;;;;;;;5.87;5.37;;;19.80;99.90;;;;;;5055726;28;20510;-86
2021/06/11 01:00:06;;;;;;;5.33;5.00;;;19.80;99.90;;;;;;5055976;28;20442;-86
2021/06/11 01:02:33;;;;;;;5.97;5.30;;;19.80;99.90;;;;;;5055124;28;20465;-86
2021/06/11 01:05:00;;;;;;;5.90;5.43;;;19.80;99.90;;;;;;5054156;28;20466;-87
2021/06/11 01:07:26;;;;;;;5.90;5.40;;;19.80;99.90;;;;;;5054293;28;20447;-86
2021/06/11 01:09:54;;;;;;;5.83;5.33;;;19.80;99.90;;;;;;5054725;28;20446;-86
2021/06/11 01:12:20;;;;;;;5.77;5.03;;;19.80;99.90;;;;;;5055175;28;20552;-88
2021/06/11 01:14:46;;;;;;;5.13;4.57;;;19.80;99.90;;;;;;5058634;28;20455;-87
2021/06/11 01:17:13;;;;;;;5.77;5.37;;;19.70;99.90;;;;;;5055422;28;20443;-86
2021/06/11 01:19:43;;;;;;;5.33;4.87;;;19.70;99.90;;;;;;5053145;28;20446;-87
2021/06/11 01:22:15;;;;;;;6.13;5.60;;;19.70;99.90;;;;;;5054123;28;20464;-86
2021/06/11 01:24:55;;;;;;;6.07;4.83;;;19.70;99.90;;;;;;5055329;28;20466;-87
2021/06/11 01:27:23;;;;;;;5.70;4.80;;;19.80;99.90;;;;;;5056255;28;20465;-86
2021/06/11 01:29:52;;;;;;;8.80;5.33;;;19.70;99.90;;;;;;5055718;28;20445;-86
2021/06/11 01:32:20;;;;;;;5.97;5.40;;;19.70;99.90;;;;;;5055711;28;20502;-87
2021/06/11 01:34:50;;;;;;;5.97;5.50;;;19.70;99.90;;;;;;5054779;28;20616;-87
2021/06/11 01:37:19;;;;;;;5.60;5.10;;;19.70;99.90;;;;;;5055723;28;20426;-87
2021/06/11 01:39:49;;;;;;;8.50;6.40;;;19.70;99.90;;;;;;5056641;28;20443;-86
2021/06/11 01:42:15;;;;;;;5.80;5.30;;;19.70;99.90;;;;;;5051284;28;20466;-87
2021/06/11 01:44:45;;;;;;;7.23;5.07;;;19.70;99.90;;;;;;5048864;28;20466;-87
2021/06/11 01:47:13;;;;;;;6.07;5.30;;;19.70;99.90;;;;;;5046188;28;20461;-87
2021/06/11 01:49:42;;;;;;;5.70;5.20;;;19.70;99.90;;;;;;5045281;28;20957;-86
2021/06/11 01:52:10;;;;;;;6.30;5.40;;;19.70;99.90;;;;;;5047884;28;20470;-87
2021/06/11 01:54:38;;;;;;;6.20;5.03;;;19.80;99.90;;;;;;5057060;28;20470;-87
2021/06/11 01:57:06;;;;;;;5.70;5.10;;;19.80;99.90;;;;;;5056830;28;20473;-87
2021/06/11 01:59:33;;;;;;;7.57;5.30;;;19.80;99.90;;;;;;5056513;28;20445;-87
2021/06/11 02:02:02;;;;;;;6.20;5.70;;;19.80;99.90;;;;;;5050201;28;21051;-87
2021/06/11 02:04:29;;;;;;;8.37;6.03;;;19.60;99.90;;;;;;5057987;22;20466;-84
2021/06/11 02:06:56;;;;;;;8.13;5.47;;;19.70;99.90;;;;;;5038452;28;20472;-84
2021/06/11 02:09:23;;;;;;;6.07;5.57;;;19.60;99.90;;;;;;5038885;28;20453;-84
2021/06/11 02:11:50;;;;;;;6.07;5.57;;;19.70;99.90;;;;;;5044641;28;20486;-84
2021/06/11 02:14:17;;;;;;;5.80;5.30;;;19.80;99.90;;;;;;5050976;28;20454;-83
2021/06/11 02:16:45;;;;;;;4.90;4.40;;;19.80;99.90;;;;;;5051340;28;20492;-83
2021/06/11 02:19:13;;;;;;;8.03;5.27;;;19.80;99.90;;;;;;5052587;28;20443;-84
2021/06/11 02:21:40;;;;;;;7.50;5.90;;;19.80;99.90;;;;;;5053051;28;20430;-84
2021/06/11 02:24:07;;;;;;;7.67;6.20;;;19.80;99.90;;;;;;5039684;28;20450;-84
2021/06/11 02:26:34;;;;;;;6.87;6.27;;;19.70;99.90;;;;;;5038421;28;21019;-84
2021/06/11 02:29:00;;;;;;;10.70;6.97;;;19.70;99.90;;;;;;5038257;28;20505;-84
2021/06/11 02:31:26;;;;;;;9.57;7.47;;;19.80;99.90;;;;;;5038574;28;20474;-84
2021/06/11 02:33:53;;;;;;;7.50;6.80;;;19.80;99.90;;;;;;5038191;28;20473;-84
2021/06/11 02:36:20;;;;;;;8.17;7.37;;;19.70;99.90;;;;;;5038280;28;20467;-84
2021/06/11 02:38:47;;;;;;;7.03;6.40;;;19.70;99.90;;;;;;5041979;28;20455;-84
2021/06/11 02:41:19;;;;;;;6.20;5.70;;;19.80;99.90;;;;;;5051423;28;20447;-84
2021/06/11 02:43:47;;;;;;;5.97;5.47;;;19.80;99.90;;;;;;5051947;28;20443;-84
2021/06/11 02:46:18;;;;;;;12.63;8.50;;;19.80;99.90;;;;;;5049248;28;20801;-83
2021/06/11 02:48:49;;;;;;;12.00;9.30;;;19.80;99.90;;;;;;5036802;28;20438;-83
2021/06/11 02:51:24;;;;;;;13.20;9.30;;;19.80;99.90;;;;;;5037412;28;20441;-83
2021/06/11 02:53:52;;;;;;;11.83;9.10;;;19.80;99.90;;;;;;5044036;28;20876;-83
2021/06/11 02:56:21;;;;;;;12.50;9.03;;;19.80;99.90;;;;;;5038540;28;20467;-84
2021/06/11 02:58:50;;;;;;;12.40;9.57;;;19.80;99.90;;;;;;5039935;28;20446;-83
2021/06/11 03:01:17;;;;;;;14.93;10.87;;;19.80;99.90;;;;;;5038760;28;20453;-83
2021/06/11 03:03:45;;;;;;;14.53;10.23;;;19.70;99.90;;;;;;5040618;28;20500;-83
2021/06/11 03:06:12;;;;;;;17.93;12.20;;;19.70;99.90;;;;;;5040511;28;21026;-83
2021/06/11 03:08:43;;;;;;;19.17;11.97;;;19.60;99.90;;;;;;5040841;28;20454;-83
2021/06/11 03:11:13;;;;;;;13.83;11.63;;;19.50;99.90;;;;;;5039875;28;20434;-83
2021/06/11 03:13:40;;;;;;;14.63;10.17;;;19.50;99.90;;;;;;5040759;28;20469;-84
2021/06/11 03:16:06;;;;;;;15.13;10.30;;;19.50;99.90;;;;;;5040333;28;20470;-84
2021/06/11 03:18:36;;;;;;;10.93;9.33;;;19.50;99.90;;;;;;5040278;28;20825;-84
2021/06/11 03:21:10;;;;;;;16.73;10.87;;;19.40;99.90;;;;;;5040143;28;20454;-84
2021/06/11 03:23:43;;;;;;;13.13;9.70;;;19.50;99.90;;;;;;5041025;28;20422;-84
2021/06/11 03:26:14;;;;;;;11.73;9.57;;;19.50;99.90;;;;;;5040172;28;20474;-83
2021/06/11 03:28:45;;;;;;;15.27;10.20;;;19.60;99.90;;;;;;5040649;28;20452;-84
2021/06/11 03:31:14;;;;;;;13.07;10.17;;;19.60;99.90;;;;;;5040322;28;20955;-83
2021/06/11 03:33:44;;;;;;;16.47;9.93;;;19.50;99.90;;;;;;5040558;28;20446;-83
2021/06/11 03:36:15;;;;;;;15.63;8.40;;;19.50;99.90;;;;;;5039373;28;20509;-84
2021/06/11 03:38:47;;;;;;;15.90;8.83;;;19.60;99.90;;;;;;5040560;28;20430;-84
2021/06/11 03:41:14;;;;;;;14.47;9.80;;;19.60;99.90;;;;;;5040679;28;20438;-84
2021/06/11 03:43:41;;;;;;;13.40;8.90;;;19.60;99.90;;;;;;5040694;28;20454;-83
2021/06/11 03:46:08;;;;;;;14.03;8.60;;;19.60;99.90;;;;;;5040504;28;20467;-84
2021/06/11 03:48:35;;;;;;;9.70;7.70;;;19.60;99.90;;;;;;5040985;28;20825;-83
2021/06/11 03:51:02;;;;;;;11.53;7.10;;;19.60;99.90;;;;;;5040787;28;20442;-83
2021/06/11 03:53:29;;;;;;;8.10;7.30;;;19.60;99.90;;;;;;5041063;28;20524;-84
2021/06/11 03:56:00;;;;;;;8.13;6.63;;;19.70;99.90;;;;;;5040751;28;20513;-84
2021/06/11 03:58:32;;;;;;;8.80;7.90;;;19.70;99.90;;;;;;5042980;28;20434;-84
2021/06/11 04:01:01;;;;;;;12.90;7.03;;;19.80;99.90;;;;;;5051821;28;20443;-84
2021/06/11 04:03:27;;;;;;;10.23;8.27;;;19.80;99.90;;;;;;5052529;28;20501;-84
2021/06/11 04:06:01;;;;;;;6.80;6.10;;;19.90;99.90;;;;;;5047363;28;20581;-83
2021/06/11 04:08:33;;;;;;;6.30;5.70;;;19.90;99.90;;;;;;5050720;28;20438;-83
2021/06/11 04:11:01;;;;;;;6.30;5.60;;;19.90;99.90;;;;;;5053293;28;20427;-84
2021/06/11 04:13:38;;;;;;;9.17;6.47;;;20.00;99.90;;;;;;5046213;28;20466;-84
2021/06/11 04:16:09;;;;;;;11.37;6.33;;;20.00;99.90;;;;;;5046334;28;20470;-84
2021/06/11 04:18:37;;;;;;;7.77;6.83;;;20.00;99.90;;;;;;5041937;28;20455;-84
2021/06/11 04:21:04;;;;;;;6.20;5.70;;;20.10;99.90;;;;;;5042868;28;20446;-84
2021/06/11 04:23:34;;;;;;;5.83;5.33;;;20.10;99.90;;;;;;5041890;28;20485;-84
2021/06/11 04:26:02;;;;;;;6.37;5.93;;;20.10;99.90;;;;;;5041347;28;20516;-84
2021/06/11 04:28:33;;;;;;;8.07;5.73;;;20.10;99.90;;;;;;5041055;28;20443;-84
2021/06/11 04:30:59;;;;;;;6.67;5.70;;;20.10;99.90;;;;;;5041113;28;20742;-84
2021/06/11 04:33:28;;;;;;;7.53;6.83;;;20.20;99.90;;;;;;5040794;28;20481;-84
2021/06/11 04:35:54;;;;;;;7.43;6.23;;;20.20;99.90;;;;;;5040290;28;20520;-83
2021/06/11 04:38:21;;;;;;;7.00;6.40;;;20.20;99.90;;;;;;5039633;28;20446;-83
2021/06/11 04:40:48;;;;;;;9.10;5.77;;;20.20;99.90;;;;;;5049761;28;20430;-82
2021/06/11 04:43:15;;;;;;;11.47;6.27;;;20.20;99.90;;;;;;5059725;28;20478;-83
2021/06/11 04:45:42;;;;;;;10.23;6.70;;;20.20;99.90;;;;;;5057714;28;20451;-83
2021/06/11 04:48:08;;;;;;;8.30;7.20;;;20.20;99.90;;;;;;5054393;28;20455;-84
2021/06/11 04:50:35;;;;;;;7.83;6.03;;;20.20;99.90;;;;;;5050309;28;20446;-84
2021/06/11 04:53:01;;;;;;;8.83;6.53;;;20.20;99.90;;;;;;5050373;28;20771;-84
2021/06/11 04:55:27;;;;;;;11.60;7.67;;;20.30;99.90;;;;;;5043634;28;20463;-84
2021/06/11 04:57:54;;;;;;;7.20;6.30;;;20.40;99.90;;;;;;5055904;28;20461;-83
2021/06/11 05:00:23;;;;;;;99.90;29.73;;;20.40;99.90;;;;;;5058343;28;20502;-84
2021/06/11 05:02:49;;;;;;;7.63;6.97;;;20.40;99.90;;;;;;5058315;28;20493;-82
2021/06/11 05:05:16;;;;;;;5.83;5.10;;;20.40;99.90;;;;;;5057656;28;20475;-83
2021/06/11 05:07:42;;;;;;;7.63;5.20;;;20.40;99.90;;;;;;5057498;28;20561;-83
2021/06/11 05:10:09;;;;;;;6.60;6.00;;;20.40;99.90;;;;;;5058613;28;20446;-83
2021/06/11 05:12:35;;;;;;;6.17;5.57;;;20.50;99.90;;;;;;5058257;28;20435;-83
2021/06/11 05:15:02;;;;;;;6.00;5.37;;;20.50;99.90;;;;;;5058273;28;20518;-83
2021/06/11 05:17:29;;;;;;;6.23;5.63;;;20.50;99.90;;;;;;5057928;28;20431;-84
2021/06/11 05:19:56;;;;;;;5.73;5.23;;;20.50;99.90;;;;;;5057645;28;20451;-84
2021/06/11 05:22:22;;;;;;;5.63;5.20;;;20.60;99.90;;;;;;5055672;28;20498;-83
2021/06/11 05:24:48;;;;;;;5.63;5.00;;;20.70;99.90;;;;;;5056163;28;20451;-84
2021/06/11 05:27:15;;;;;;;8.27;5.70;;;20.80;99.90;;;;;;5055332;28;20502;-84
2021/06/11 05:29:41;;;;;;;7.27;6.10;;;20.90;99.90;;;;;;5053915;28;20457;-84
2021/06/11 05:32:08;;;;;;;5.40;4.90;;;20.90;99.90;;;;;;5054851;28;20439;-84
2021/06/11 05:34:35;;;;;;;7.77;5.70;;;21.00;99.90;;;;;;5045260;28;20470;-84
2021/06/11 05:37:01;;;;;;;5.47;4.43;;;21.20;99.90;;;;;;5042757;28;20541;-82
2021/06/11 05:39:28;;;;;;;8.83;5.43;;;21.20;99.90;;;;;;5048442;28;20446;-83
2021/06/11 05:41:54;;;;;;;5.83;5.33;;;21.20;99.90;;;;;;5040742;28;20489;-83
2021/06/11 05:44:20;;;;;;;9.27;5.03;;;21.20;99.90;;;;;;5040723;28;20477;-82
2021/06/11 05:46:46;;;;;;;8.60;5.80;;;21.20;99.90;;;;;;5042271;28;20586;-83
2021/06/11 05:49:12;;;;;;;26.33;10.40;;;21.30;99.90;;;;;;5042002;28;20781;-84
2021/06/11 05:51:39;;;;;;;8.70;5.93;;;21.40;99.90;;;;;;5039745;28;20941;-84
2021/06/11 05:54:05;;;;;;;8.60;6.13;;;21.50;99.90;;;;;;5037573;28;20538;-83
2021/06/11 05:56:32;;;;;;;7.70;5.40;;;21.60;99.90;;;;;;5040866;28;20447;-83
2021/06/11 05:58:58;;;;;;;10.23;6.57;;;21.60;99.90;;;;;;5046401;28;20482;-84
2021/06/11 06:01:24;;;;;;;6.00;5.50;;;21.70;99.90;;;;;;5040902;28;20442;-83
2021/06/11 06:03:50;;;;;;;6.90;5.40;;;21.70;99.90;;;;;;5039694;28;20807;-84
2021/06/11 06:06:16;;;;;;;8.13;4.87;;;21.70;99.90;;;;;;5040072;28;20482;-84
2021/06/11 06:08:44;;;;;;;6.40;5.70;;;21.80;99.90;;;;;;5042594;28;20447;-83
2021/06/11 06:11:13;;;;;;;5.13;4.30;;;21.90;99.90;;;;;;5041708;28;20457;-82
2021/06/11 06:13:39;;;;;;;7.83;5.10;;;21.90;99.90;;;;;;5042425;28;20789;-84
2021/06/11 06:16:05;;;;;;;10.33;6.80;;;21.90;99.90;;;;;;5042122;28;20463;-83
2021/06/11 06:18:31;;;;;;;12.27;5.93;;;21.90;99.90;;;;;;5040900;28;20453;-83
2021/06/11 06:20:59;;;;;;;5.73;5.20;;;22.00;99.90;;;;;;5043530;28;20439;-83
2021/06/11 06:23:30;;;;;;;22.40;20.03;;;22.10;99.90;;;;;;5046827;28;20588;-83
2021/06/11 06:25:57;;;;;;;12.07;7.90;;;22.20;99.90;;;;;;5053278;28;20988;-84
2021/06/11 06:28:24;;;;;;;6.53;5.93;;;22.30;99.90;;;;;;5043959;28;20446;-84
2021/06/11 06:30:50;;;;;;;7.43;6.63;;;22.20;99.90;;;;;;5042379;28;20453;-84
2021/06/11 06:33:16;;;;;;;6.40;5.80;;;22.30;99.90;;;;;;5043039;28;20455;-84
2021/06/11 06:35:42;;;;;;;6.30;5.70;;;22.30;99.90;;;;;;5049485;28;20471;-84
2021/06/11 06:38:10;;;;;;;6.30;5.80;;;22.40;99.90;;;;;;5046704;28;20456;-84
2021/06/11 06:40:37;;;;;;;7.27;6.57;;;22.40;99.90;;;;;;5046583;28;20424;-83
2021/06/11 06:43:04;;;;;;;10.37;6.83;;;22.50;99.90;;;;;;5047504;28;20505;-83
2021/06/11 06:45:30;;;;;;;8.60;7.57;;;22.70;99.90;;;;;;5043224;28;20469;-84
2021/06/11 06:47:59;;;;;;;9.10;7.03;;;22.60;99.90;;;;;;5043303;28;20427;-84
2021/06/11 06:50:25;;;;;;;8.40;7.53;;;22.70;99.90;;;;;;5041512;28;20537;-84
2021/06/11 06:52:53;;;;;;;8.90;6.87;;;22.80;99.90;;;;;;5043048;28;20841;-84
2021/06/11 06:55:19;;;;;;;7.10;6.30;;;22.80;99.90;;;;;;5039933;28;20468;-82
2021/06/11 06:57:45;;;;;;;8.37;7.67;;;22.80;99.90;;;;;;5041597;28;20815;-83
2021/06/11 07:00:16;;;;;;;7.90;7.03;;;22.80;99.90;;;;;;5042615;28;20953;-84
2021/06/11 07:02:42;;;;;;;8.63;7.83;;;22.80;99.90;;;;;;5042871;28;20822;-83
2021/06/11 07:05:10;;;;;;;8.27;7.47;;;22.70;99.90;;;;;;5042199;28;20478;-82
2021/06/11 07:07:36;;;;;;;9.17;8.27;;;22.80;99.90;;;;;;5041109;28;20455;-84
2021/06/11 07:10:02;;;;;;;8.57;7.77;;;22.90;99.90;;;;;;5039214;28;20905;-84
2021/06/11 07:12:28;;;;;;;9.00;8.20;;;23.00;99.90;;;;;;5043457;28;20443;-82
2021/06/11 07:14:55;;;;;;;8.80;8.00;;;23.10;99.90;;;;;;5047854;28;20470;-83
2021/06/11 07:17:22;;;;;;;9.30;8.50;;;23.10;99.90;;;;;;5044335;28;20451;-83
2021/06/11 07:19:48;;;;;;;8.10;7.40;;;23.20;99.90;;;;;;5041653;28;20432;-83
2021/06/11 07:22:16;;;;;;;9.10;8.20;;;23.30;99.90;;;;;;5041830;28;20496;-83
2021/06/11 07:24:43;;;;;;;8.50;7.90;;;23.20;99.90;;;;;;5045726;28;20471;-84
2021/06/11 07:27:09;;;;;;;8.23;7.43;;;23.20;99.90;;;;;;5039436;28;20446;-84
2021/06/11 07:29:42;;;;;;;7.17;6.57;;;23.20;99.90;;;;;;5039181;28;20843;-84
2021/06/11 07:32:08;;;;;;;12.67;10.40;;;23.20;99.90;;;;;;5038919;28;20435;-84
2021/06/11 07:34:36;;;;;;;7.80;7.00;;;23.20;99.90;;;;;;5039041;28;20472;-83
2021/06/11 07:37:03;;;;;;;9.77;8.77;;;23.40;99.90;;;;;;5041719;28;20443;-83
2021/06/11 07:39:29;;;;;;;10.67;9.57;;;23.30;99.90;;;;;;5043746;28;20434;-82
2021/06/11 07:41:56;;;;;;;10.57;9.57;;;23.40;99.90;;;;;;5046687;28;20523;-82
2021/06/11 07:44:22;;;;;;;10.57;9.57;;;23.70;99.90;;;;;;5045012;28;20432;-83
2021/06/11 07:46:48;;;;;;;9.43;8.43;;;23.60;99.90;;;;;;5044988;28;20797;-84
2021/06/11 07:49:14;;;;;;;10.57;9.60;;;23.50;99.90;;;;;;5042423;28;20452;-83
2021/06/11 07:51:42;;;;;;;13.07;11.67;;;23.60;99.90;;;;;;5041914;28;20456;-84
2021/06/11 07:54:08;;;;;;;11.73;10.33;;;23.80;99.90;;;;;;5041839;28;20452;-83
2021/06/11 07:56:35;;;;;;;10.73;9.70;;;23.80;99.90;;;;;;5042964;28;20439;-84
2021/06/11 07:59:01;;;;;;;10.07;8.60;;;23.80;99.90;;;;;;5043180;28;20505;-83
2021/06/11 08:01:27;;;;;;;11.57;10.10;;;23.70;99.90;;;;;;5042229;28;20449;-84
2021/06/11 08:03:53;;;;;;;7.90;7.20;;;23.70;99.90;;;;;;5045180;28;20491;-83
2021/06/11 08:06:20;;;;;;;9.63;8.73;;;23.80;99.90;;;;;;5061593;22;20508;-87
2021/06/11 08:08:47;;;;;;;9.53;8.73;;;23.90;99.90;;;;;;5047027;28;20448;-86
2021/06/11 08:11:14;;;;;;;8.93;8.13;;;23.90;99.90;;;;;;5046357;28;20508;-86
2021/06/11 08:13:41;;;;;;;10.70;8.53;;;23.90;99.90;;;;;;5045512;28;20421;-87
2021/06/11 08:16:07;;;;;;;10.13;9.17;;;24.10;99.90;;;;;;5045206;28;20462;-86
2021/06/11 08:18:34;;;;;;;10.77;9.77;;;23.90;99.90;;;;;;5044849;28;20433;-86
2021/06/11 08:21:17;;;;;;;;;;;;;;;;;;;;;
2021/06/11 08:23:44;;;;;;;9.13;8.30;;;23.90;99.90;;;;;;5042555;28;20572;-86
2021/06/11 08:26:11;;;;;;;8.00;7.30;;;24.00;99.90;;;;;;5042970;28;20480;-86
2021/06/11 08:28:38;;;;;;;16.27;8.53;;;24.00;99.90;;;;;;5047481;28;20456;-86
2021/06/11 08:31:05;;;;;;;11.50;10.40;;;23.90;99.90;;;;;;5051086;28;20464;-86
2021/06/11 08:33:31;;;;;;;10.77;9.13;;;24.00;99.90;;;;;;5043365;28;20462;-86
2021/06/11 08:35:57;;;;;;;9.90;9.10;;;24.30;99.90;;;;;;5040302;28;20526;-86
2021/06/11 08:38:23;;;;;;;11.70;10.60;;;24.30;99.90;;;;;;5039347;28;20938;-86
2021/06/11 08:40:49;;;;;;;12.70;8.93;;;24.40;99.90;;;;;;5039779;28;20437;-86
2021/06/11 08:43:19;;;;;;;12.50;9.37;;;24.40;99.90;;;;;;5040169;28;20515;-86
2021/06/11 08:45:46;;;;;;;18.17;10.13;;;24.40;99.90;;;;;;5039393;28;20804;-86
2021/06/11 08:48:12;;;;;;;11.50;9.97;;;24.40;99.90;;;;;;5043736;28;20463;-87
2021/06/11 08:50:40;;;;;;;11.03;9.13;;;24.50;99.90;;;;;;5045022;28;20490;-87
2021/06/11 08:53:07;;;;;;;11.27;10.17;;;24.50;99.90;;;;;;5039911;28;20545;-87
2021/06/11 08:55:35;;;;;;;11.27;9.00;;;24.50;99.90;;;;;;5042037;28;20504;-87
2021/06/11 08:58:02;;;;;;;9.97;9.07;;;24.40;99.90;;;;;;5042982;28;20441;-87
2021/06/11 09:00:32;;;;;;;7.57;6.87;;;24.50;99.90;;;;;;5041299;28;20450;-85
2021/06/11 09:03:15;;;;;;;8.00;7.40;;;24.60;99.90;;;;;;5041572;28;20501;-85
2021/06/11 09:05:43;;;;;;;9.07;6.50;;;24.60;99.90;;;;;;5044254;28;20855;-85
2021/06/11 09:08:14;;;;;;;6.50;5.90;;;24.70;99.90;;;;;;5042602;28;20457;-86
2021/06/11 09:10:41;;;;;;;6.00;5.50;;;24.80;99.90;;;;;;5042206;28;20791;-87
2021/06/11 09:13:07;;;;;;;8.90;7.40;;;24.80;99.90;;;;;;5043038;28;20461;-86
2021/06/11 09:15:35;;;;;;;7.83;7.23;;;24.60;99.90;;;;;;5043874;28;20469;-86
2021/06/11 09:18:02;;;;;;;8.30;7.60;;;24.60;99.90;;;;;;5044013;28;20441;-86
2021/06/11 09:20:31;;;;;;;9.77;8.77;;;24.80;99.90;;;;;;5044582;28;20468;-87
2021/06/11 09:22:59;;;;;;;8.00;7.40;;;24.90;99.90;;;;;;5042652;28;20478;-87
2021/06/11 09:25:32;;;;;;;9.60;8.70;;;24.90;99.90;;;;;;5043837;28;20477;-87
2021/06/11 09:28:00;;;;;;;7.57;6.63;;;24.90;99.90;;;;;;5048370;28;20485;-87
2021/06/11 09:30:32;;;;;;;7.53;6.77;;;25.00;99.90;;;;;;5048210;28;20469;-87
2021/06/11 09:33:01;;;;;;;7.17;6.57;;;25.10;99.90;;;;;;5045915;28;20430;-86
2021/06/11 09:35:32;;;;;;;6.50;5.80;;;25.00;99.90;;;;;;5041910;28;20475;-86
2021/06/11 09:38:11;;;;;;;6.10;5.60;;;25.00;99.90;;;;;;5041869;28;20899;-86
2021/06/11 09:40:37;;;;;;;8.50;6.30;;;24.80;99.90;;;;;;5041876;28;20449;-87
2021/06/11 09:43:04;;;;;;;5.97;5.57;;;24.90;99.90;;;;;;5041620;28;20488;-86
2021/06/11 09:45:31;;;;;;;5.33;4.93;;;24.80;99.90;;;;;;5044041;28;20466;-87
2021/06/11 09:47:59;;;;;;;6.17;5.67;;;24.90;99.90;;;;;;5043302;28;20820;-87
2021/06/11 09:50:29;;;;;;;5.40;5.00;;;25.00;99.90;;;;;;5044860;28;20453;-87
2021/06/11 09:53:01;;;;;;;6.70;5.20;;;25.20;99.90;;;;;;5046322;28;20453;-87
2021/06/11 09:55:33;;;;;;;5.70;5.10;;;25.40;99.90;;;;;;5046961;28;20470;-87
2021/06/11 09:58:09;;;;;;;5.87;5.30;;;25.60;99.90;;;;;;5045988;28;20444;-87
2021/06/11 10:00:37;;;;;;;6.00;5.40;;;25.60;99.90;;;;;;5047715;28;20467;-87
2021/06/11 10:03:10;;;;;;;5.33;4.83;;;25.60;99.90;;;;;;5042831;28;20576;-87
2021/06/11 10:05:37;;;;;;;7.37;5.90;;;25.50;99.90;;;;;;5052701;28;20474;-87
2021/06/11 10:08:03;;;;;;;6.57;5.50;;;25.50;99.90;;;;;;5055773;28;20442;-86
2021/06/11 10:10:29;;;;;;;6.50;5.97;;;25.50;99.90;;;;;;5055511;28;20430;-86
2021/06/11 10:12:56;;;;;;;7.10;5.40;;;25.60;99.90;;;;;;5055234;28;20445;-87
2021/06/11 10:15:22;;;;;;;7.10;5.27;;;25.60;99.90;;;;;;5049590;28;20991;-87
2021/06/11 10:17:48;;;;;;;6.33;5.43;;;25.60;99.90;;;;;;5036472;28;20446;-87
2021/06/11 10:20:34;;;;;;;5.60;5.10;;;25.20;99.90;;;;;;5006336;28;20441;-88
2021/06/11 10:23:01;;;;;;;4.73;4.30;;;25.20;99.90;;;;;;5036308;28;20516;-87
2021/06/11 10:25:28;;;;;;;4.70;4.40;;;25.30;99.90;;;;;;5038346;28;20474;-86
2021/06/11 10:27:55;;;;;;;5.10;4.70;;;25.50;99.90;;;;;;5037153;28;20454;-87
2021/06/11 10:30:26;;;;;;;5.43;4.90;;;25.50;99.90;;;;;;5035884;28;20450;-87
2021/06/11 10:32:52;;;;;;;4.83;4.50;;;25.50;99.90;;;;;;5036619;28;20462;-87
2021/06/11 10:35:37;;;;;;;5.53;5.23;;;25.50;99.90;;;;;;5036320;28;20467;-87
2021/06/11 10:38:42;;;;;;;6.03;4.40;;;25.50;98.80;;;;;;5038403;28;20415;-87
2021/06/11 10:41:09;;;;;;;4.20;3.90;;;25.50;99.90;;;;;;5041560;28;20554;-87
2021/06/11 10:43:56;;;;;;;;;;;;;;;;;;;;;
2021/06/11 10:46:24;;;;;;;4.30;3.90;;;25.80;99.90;;;;;;5039377;28;20462;-87
2021/06/11 10:49:06;;;;;;;5.30;4.33;;;25.90;99.90;;;;;;5038525;28;20451;-87
2021/06/11 10:51:38;;;;;;;6.70;4.50;;;26.00;99.90;;;;;;5038184;28;20462;-86
2021/06/11 10:54:27;;;;;;;6.13;3.27;;;26.10;98.90;;;;;;5038205;28;20803;-86
2021/06/11 10:57:15;;;;;;;5.30;4.20;;;26.20;99.90;;;;;;5038569;28;20490;-87
2021/06/11 10:59:43;;;;;;;6.27;4.40;;;26.10;99.10;;;;;;5039747;28;20788;-86
2021/06/11 11:02:10;;;;;;;4.57;3.70;;;26.10;99.90;;;;;;5038224;28;20466;-86
2021/06/11 11:04:37;;;;;;;4.87;3.87;;;26.00;99.10;;;;;;5037743;28;20439;-85
2021/06/11 11:07:33;;;;;;;4.37;3.97;;;26.20;99.80;;;;;;5036384;28;20500;-86
2021/06/11 11:10:01;;;;;;;5.93;4.00;;;26.00;99.60;;;;;;5036089;28;20453;-86
2021/06/11 11:12:30;;;;;;;3.87;3.63;;;26.10;99.70;;;;;;5041739;28;20553;-86
2021/06/11 11:14:57;;;;;;;4.47;4.07;;;26.20;99.50;;;;;;5041869;28;20527;-86
2021/06/11 11:17:24;;;;;;;5.30;3.93;;;26.10;99.40;;;;;;5041203;28;20434;-86
2021/06/11 11:19:54;;;;;;;4.43;3.83;;;26.10;99.30;;;;;;5042383;28;20451;-87
2021/06/11 11:22:36;;;;;;;4.43;4.13;;;26.10;99.90;;;;;;5042534;28;20581;-87
2021/06/11 11:25:12;;;;;;;4.23;3.93;;;26.00;99.70;;;;;;5044242;28;20501;-87
2021/06/11 11:27:38;;;;;;;4.97;4.10;;;25.90;99.90;;;;;;5057319;28;20450;-87
2021/06/11 11:30:07;;;;;;;4.63;4.23;;;26.00;99.90;;;;;;5059830;28;20451;-87
2021/06/11 11:32:33;;;;;;;5.17;4.47;;;26.00;99.00;;;;;;5051204;28;20488;-87
2021/06/11 11:35:00;;;;;;;4.40;4.10;;;26.10;99.20;;;;;;5047087;28;20889;-87
2021/06/11 11:37:26;;;;;;;7.00;4.53;;;26.10;99.80;;;;;;5046551;28;20485;-86
2021/06/11 11:39:53;;;;;;;5.10;3.77;;;26.30;99.40;;;;;;5053035;28;20426;-86
2021/06/11 11:42:20;;;;;;;5.23;3.70;;;26.00;99.70;;;;;;5048876;28;20450;-86
2021/06/11 11:44:46;;;;;;;4.43;4.13;;;25.70;99.90;;;;;;5045595;28;20458;-86
2021/06/11 11:47:12;;;;;;;4.33;3.93;;;25.90;99.60;;;;;;5045637;28;20446;-87
2021/06/11 11:49:38;;;;;;;4.07;3.77;;;26.00;99.70;;;;;;5059156;28;20453;-86
2021/06/11 11:52:04;;;;;;;6.60;3.67;;;25.90;98.60;;;;;;5058285;28;20434;-86
2021/06/11 11:54:32;;;;;;;3.23;3.03;;;26.00;99.30;;;;;;5058912;28;20427;-87
2021/06/11 11:56:59;;;;;;;4.10;3.80;;;26.10;99.20;;;;;;5059912;28;20474;-87
2021/06/11 11:59:26;;;;;;;3.90;3.60;;;26.20;99.00;;;;;;5048552;28;20442;-87
2021/06/11 12:01:52;;;;;;;7.37;3.60;;;26.30;99.00;;;;;;5044502;28;20450;-87
2021/06/11 12:04:18;;;;;;;5.07;3.90;;;26.10;99.50;;;;;;5057155;28;20492;-86
2021/06/11 12:06:45;;;;;;;4.43;4.03;;;26.20;99.50;;;;;;5059329;28;20473;-86
2021/06/11 12:09:12;;;;;;;4.43;3.80;;;26.40;99.60;;;;;;5059170;28;20434;-86
2021/06/11 12:11:38;;;;;;;4.00;3.67;;;26.50;99.80;;;;;;5059569;28;20449;-87
2021/06/11 12:14:06;;;;;;;6.53;3.00;;;26.50;99.10;;;;;;5057992;28;20439;-86
2021/06/11 12:16:33;;;;;;;3.37;3.07;;;26.70;99.40;;;;;;5043577;28;20957;-87
2021/06/11 12:18:59;;;;;;;5.03;3.33;;;26.30;99.10;;;;;;5044407;28;20461;-86
2021/06/11 12:21:25;;;;;;;4.40;3.43;;;25.90;99.30;;;;;;5042467;28;20446;-87
2021/06/11 12:23:52;;;;;;;3.50;3.30;;;25.90;99.80;;;;;;5041096;28;20851;-87
2021/06/11 12:26:19;;;;;;;3.77;3.03;;;26.00;99.90;;;;;;5040434;28;20621;-88
2021/06/11 12:28:45;;;;;;;3.13;2.90;;;25.90;99.00;;;;;;5042106;28;20501;-87
2021/06/11 12:31:13;;;;;;;2.90;2.70;;;25.90;98.80;;;;;;5040616;28;20442;-86
2021/06/11 12:33:39;;;;;;;2.80;2.40;;;26.10;98.50;;;;;;5039599;28;20504;-86
2021/06/11 12:36:05;;;;;;;3.33;2.50;;;26.10;97.20;;;;;;5039225;28;20818;-87
2021/06/11 12:38:35;;;;;;;3.20;2.60;;;26.20;98.30;;;;;;5040733;28;20459;-88
2021/06/11 12:41:01;;;;;;;4.20;3.40;;;26.40;98.00;;;;;;5041240;28;20442;-88
2021/06/11 12:46:13;;;;;;;3.10;2.30;;;26.30;96.90;;;;;;5058505;28;20450;-87
2021/06/11 12:48:39;;;;;;;2.90;2.60;;;26.20;97.30;;;;;;5058273;28;20451;-86
2021/06/11 12:51:05;;;;;;;2.60;2.40;;;26.10;96.70;;;;;;5051674;28;20459;-87
2021/06/11 12:53:31;;;;;;;2.67;2.47;;;26.10;96.90;;;;;;5044172;28;20451;-87